createdAt,value
2019-02-26T00:00:14.408Z,103597.76
2019-02-26T00:02:23.682Z,103590.75
2019-02-26T00:04:35.046Z,103588.61
2019-02-26T00:05:39.312Z,103593.42
2019-02-26T00:07:51.215Z,103588.48
2019-02-26T00:15:17.650Z,103582.72
2019-02-26T00:18:30.164Z,103589.98
2019-02-26T00:21:43.039Z,103594.73
2019-02-26T00:23:53.147Z,103593.36
2019-02-26T00:24:57.844Z,103596.80
2019-02-26T00:26:02.478Z,103597.19
2019-02-26T00:27:07.622Z,103598.08
2019-02-26T00:32:27.684Z,103597.79
2019-02-26T00:37:47.158Z,103593.33
2019-02-26T00:39:57.537Z,103592.50
2019-02-26T00:41:03.786Z,103592.50
2019-02-26T00:44:15.584Z,103593.20
2019-02-26T00:46:24.268Z,103594.09
2019-02-26T00:47:33.886Z,103595.72
2019-02-26T00:49:41.901Z,103591.25
2019-02-26T00:52:56.488Z,103602.17
2019-02-26T00:56:10.286Z,103595.93
2019-02-26T00:57:15.053Z,103593.22
2019-02-26T00:58:19.441Z,103594.08
2019-02-26T01:01:31.671Z,103594.46
2019-02-26T01:03:40.728Z,103595.63
2019-02-26T01:04:46.728Z,103592.61
2019-02-26T01:09:08.819Z,103590.73
2019-02-26T01:10:13.977Z,103596.36
2019-02-26T01:11:19.469Z,103594.16
2019-02-26T01:13:30.153Z,103593.27
2019-02-26T01:14:36.039Z,103598.02
2019-02-26T01:16:45.943Z,103595.81
2019-02-26T01:19:58.779Z,103596.51
2019-02-26T01:22:08.352Z,103600.84
2019-02-26T01:23:12.753Z,103600.32
2019-02-26T01:27:27.933Z,103607.95
2019-02-26T01:37:03.048Z,103604.20
2019-02-26T01:39:13.805Z,103600.05
2019-02-26T01:40:21.162Z,103603.56
2019-02-26T01:41:27.261Z,103604.04
2019-02-26T01:52:06.215Z,103583.61
2019-02-26T01:57:28.328Z,103580.11
2019-02-26T01:59:36.438Z,103586.08
2019-02-26T02:02:49.260Z,103584.06
2019-02-26T02:03:56.036Z,103581.93
2019-02-26T02:05:02.125Z,103586.80
2019-02-26T02:06:08.365Z,103581.11
2019-02-26T02:07:12.938Z,103582.89
2019-02-26T02:08:18.601Z,103584.20
2019-02-26T02:10:27.683Z,103585.36
2019-02-26T02:12:37.384Z,103586.25
2019-02-26T02:15:49.216Z,103591.41
2019-02-26T02:16:53.646Z,103587.83
2019-02-26T02:19:01.649Z,103583.19
2019-02-26T02:23:21.205Z,103578.59
2019-02-26T02:24:26.963Z,103581.20
2019-02-26T02:25:33.420Z,103575.85
2019-02-26T02:28:46.148Z,103585.59
2019-02-26T02:29:51.373Z,103580.23
2019-02-26T02:34:08.910Z,103592.45
2019-02-26T02:39:29.211Z,103594.88
2019-02-26T02:42:43.097Z,103588.16
2019-02-26T02:46:59.083Z,103588.97
2019-02-26T02:48:06.254Z,103587.16
2019-02-26T02:54:29.320Z,103589.14
2019-02-26T02:55:33.714Z,103583.03
2019-02-26T02:56:39.872Z,103587.83
2019-02-26T02:58:49.468Z,103581.80
2019-02-26T02:59:56.755Z,103581.73
2019-02-26T03:06:18.936Z,103579.34
2019-02-26T03:10:36.572Z,103570.97
2019-02-26T03:12:51.217Z,103571.38
2019-02-26T03:13:51.343Z,103571.72
2019-02-26T03:16:01.675Z,103573.33
2019-02-26T03:17:09.200Z,103581.08
2019-02-26T03:18:14.879Z,103581.15
2019-02-26T03:21:27.761Z,103579.11
2019-02-26T03:23:38.039Z,103572.52
2019-02-26T03:25:47.300Z,103566.97
2019-02-26T03:26:52.859Z,103563.40
2019-02-26T03:27:57.254Z,103567.98
2019-02-26T03:29:01.681Z,103572.04
2019-02-26T03:30:10.334Z,103568.87
2019-02-26T03:32:18.385Z,103570.18
2019-02-26T03:37:37.368Z,103568.95
2019-02-26T03:38:44.151Z,103561.14
2019-02-26T03:39:49.251Z,103565.45
2019-02-26T03:40:55.550Z,103562.81
2019-02-26T03:42:00.115Z,103564.23
2019-02-26T03:43:07.360Z,103565.13
2019-02-26T03:44:10.885Z,103560.88
2019-02-26T03:46:20.016Z,103562.11
2019-02-26T03:47:24.668Z,103562.92
2019-02-26T03:50:36.263Z,103559.73
2019-02-26T03:56:59.396Z,103562.59
2019-02-26T03:58:03.813Z,103558.20
2019-02-26T03:59:11.134Z,103554.70
2019-02-26T04:00:20.035Z,103559.43
2019-02-26T04:03:34.719Z,103555.41
2019-02-26T04:04:38.861Z,103556.64
2019-02-26T04:08:55.984Z,103554.38
2019-02-26T04:12:10.375Z,103552.59
2019-02-26T04:15:24.307Z,103556.91
2019-02-26T04:19:38.758Z,103552.40
2019-02-26T04:21:57.917Z,103557.12
2019-02-26T04:23:02.429Z,103560.22
2019-02-26T04:26:34.994Z,103556.98
2019-02-26T04:30:13.570Z,103556.38
2019-02-26T04:31:33.514Z,103562.07
2019-02-26T04:32:53.771Z,103555.00
2019-02-26T04:34:10.087Z,103560.21
2019-02-26T04:36:42.746Z,103551.09
2019-02-26T04:38:06.321Z,103550.28
2019-02-26T04:40:38.920Z,103547.52
2019-02-26T04:49:18.157Z,103527.58
2019-02-26T04:50:26.090Z,103529.33
2019-02-26T04:52:35.119Z,103523.67
2019-02-26T04:54:42.769Z,103519.24
2019-02-26T04:56:51.081Z,103525.05
2019-02-26T04:59:03.346Z,103525.12
2019-02-26T05:00:10.534Z,103526.42
2019-02-26T05:01:16.379Z,103527.23
2019-02-26T05:02:21.142Z,103523.74
2019-02-26T05:03:25.519Z,103530.70
2019-02-26T05:05:34.918Z,103527.13
2019-02-26T05:06:40.176Z,103524.03
2019-02-26T05:08:48.174Z,103521.91
2019-02-26T05:10:57.493Z,103513.63
2019-02-26T05:12:02.464Z,103514.52
2019-02-26T05:13:09.549Z,103511.76
2019-02-26T05:14:15.410Z,103513.47
2019-02-26T05:15:20.961Z,103515.66
2019-02-26T05:16:28.899Z,103518.34
2019-02-26T05:24:00.130Z,103519.15
2019-02-26T05:28:18.945Z,103512.23
2019-02-26T05:29:23.570Z,103513.05
2019-02-26T05:30:28.055Z,103516.84
2019-02-26T05:32:36.407Z,103516.02
2019-02-26T05:33:40.865Z,103517.33
2019-02-26T05:37:58.320Z,103505.45
2019-02-26T05:41:11.526Z,103512.30
2019-02-26T05:42:15.938Z,103513.59
2019-02-26T05:43:22.647Z,103508.73
2019-02-26T05:45:33.088Z,103505.27
2019-02-26T05:46:36.746Z,103507.38
2019-02-26T05:49:49.371Z,103509.98
2019-02-26T05:51:59.292Z,103517.64
2019-02-26T05:53:05.515Z,103517.56
2019-02-26T05:56:20.190Z,103524.06
2019-02-26T05:57:27.748Z,103520.50
2019-02-26T05:58:30.407Z,103522.24
2019-02-26T06:00:39.393Z,103513.58
2019-02-26T06:01:46.485Z,103517.56
2019-02-26T06:03:54.059Z,103513.98
2019-02-26T06:06:02.062Z,103509.56
2019-02-26T06:07:06.472Z,103509.97
2019-02-26T06:09:16.277Z,103512.57
2019-02-26T06:10:21.626Z,103512.98
2019-02-26T06:11:30.889Z,103515.98
2019-02-26T06:13:40.238Z,103515.42
2019-02-26T06:16:55.083Z,103513.11
2019-02-26T06:17:58.035Z,103517.13
2019-02-26T06:20:11.067Z,103514.53
2019-02-26T06:21:18.095Z,103517.13
2019-02-26T06:22:26.034Z,103518.31
2019-02-26T06:23:31.737Z,103517.02
2019-02-26T06:24:38.055Z,103520.43
2019-02-26T06:25:42.728Z,103518.64
2019-02-26T06:28:54.425Z,103515.15
2019-02-26T06:33:18.209Z,103516.45
2019-02-26T06:37:35.434Z,103516.05
2019-02-26T06:39:43.457Z,103519.25
2019-02-26T06:40:49.118Z,103525.71
2019-02-26T06:42:58.695Z,103521.86
2019-02-26T06:44:03.126Z,103527.95
2019-02-26T06:45:11.525Z,103528.84
2019-02-26T06:47:21.594Z,103526.73
2019-02-26T06:48:29.646Z,103528.52
2019-02-26T06:49:33.575Z,103525.98
2019-02-26T06:52:47.566Z,103519.97
2019-02-26T06:53:52.263Z,103521.67
2019-02-26T06:55:00.218Z,103522.57
2019-02-26T06:59:34.241Z,103523.10
2019-02-26T07:03:49.009Z,103525.86
2019-02-26T07:07:01.952Z,103528.20
2019-02-26T07:08:07.072Z,103524.06
2019-02-26T07:09:13.288Z,103525.83
2019-02-26T07:11:21.417Z,103522.76
2019-02-26T07:12:26.517Z,103519.53
2019-02-26T07:13:31.156Z,103521.19
2019-02-26T07:18:49.877Z,103522.16
2019-02-26T07:19:55.925Z,103526.88
2019-02-26T07:21:00.612Z,103526.59
2019-02-26T07:25:18.181Z,103523.04
2019-02-26T07:27:26.426Z,103527.02
2019-02-26T07:29:39.872Z,103523.20
2019-02-26T07:33:53.918Z,103524.85
2019-02-26T07:34:59.450Z,103520.20
2019-02-26T07:36:04.225Z,103524.52
2019-02-26T07:39:17.837Z,103519.91
2019-02-26T07:40:22.522Z,103527.05
2019-02-26T07:41:28.385Z,103522.33
2019-02-26T07:42:36.649Z,103523.22
2019-02-26T07:44:43.636Z,103518.05
2019-02-26T07:46:51.902Z,103519.91
2019-02-26T07:47:58.383Z,103516.98
2019-02-26T07:49:04.867Z,103519.66
2019-02-26T07:50:12.401Z,103520.17
2019-02-26T07:55:32.711Z,103519.09
2019-02-26T07:56:38.182Z,103520.40
2019-02-26T07:57:45.052Z,103517.45
2019-02-26T07:59:52.947Z,103514.97
2019-02-26T08:02:01.820Z,103516.68
2019-02-26T08:04:11.632Z,103529.30
2019-02-26T08:05:19.289Z,103526.91
2019-02-26T08:10:40.135Z,103524.63
2019-02-26T08:12:48.215Z,103522.14
2019-02-26T08:13:54.316Z,103524.33
2019-02-26T08:17:06.383Z,103526.67
2019-02-26T08:18:11.093Z,103530.24
2019-02-26T08:21:25.200Z,103530.75
2019-02-26T08:28:51.658Z,103522.38
2019-02-26T08:30:59.699Z,103517.67
2019-02-26T08:32:04.211Z,103524.08
2019-02-26T08:34:13.505Z,103524.25
2019-02-26T08:36:23.019Z,103526.12
2019-02-26T08:37:27.436Z,103523.53
2019-02-26T08:41:49.738Z,103534.86
2019-02-26T08:42:54.148Z,103533.12
2019-02-26T08:46:07.336Z,103533.88
2019-02-26T08:47:13.926Z,103534.72
2019-02-26T08:48:20.522Z,103533.06
2019-02-26T08:50:32.965Z,103534.47
2019-02-26T08:54:46.609Z,103535.45
2019-02-26T08:55:53.232Z,103533.94
2019-02-26T08:58:01.161Z,103534.77
2019-02-26T09:01:23.453Z,103524.87
2019-02-26T09:06:42.313Z,103520.11
2019-02-26T09:08:50.721Z,103522.55
2019-02-26T09:09:57.445Z,103516.90
2019-02-26T09:11:03.378Z,103518.70
2019-02-26T09:14:16.704Z,103516.60
2019-02-26T09:16:27.846Z,103512.62
2019-02-26T09:21:47.744Z,103508.08
2019-02-26T09:23:57.070Z,103508.36
2019-02-26T09:26:07.553Z,103512.70
2019-02-26T09:27:11.934Z,103512.21
2019-02-26T09:30:23.569Z,103517.58
2019-02-26T09:35:42.512Z,103519.50
2019-02-26T09:37:52.722Z,103519.01
2019-02-26T09:41:04.234Z,103532.77
2019-02-26T09:42:09.195Z,103530.30
2019-02-26T09:43:15.565Z,103531.34
2019-02-26T09:44:20.383Z,103536.44
2019-02-26T09:45:29.316Z,103535.55
2019-02-26T09:47:36.231Z,103529.72
2019-02-26T09:51:51.613Z,103534.36
2019-02-26T09:56:08.539Z,103536.44
2019-02-26T10:00:27.037Z,103532.40
2019-02-26T10:02:35.345Z,103531.42
2019-02-26T10:04:45.064Z,103526.61
2019-02-26T10:05:52.570Z,103528.47
2019-02-26T10:06:56.316Z,103532.02
2019-02-26T10:10:14.115Z,103536.59
2019-02-26T10:11:20.746Z,103540.28
2019-02-26T10:17:45.187Z,103546.58
2019-02-26T10:20:57.950Z,103549.03
2019-02-26T10:24:09.587Z,103551.11
2019-02-26T10:26:17.617Z,103554.59
2019-02-26T10:28:25.635Z,103563.02
2019-02-26T10:31:40.132Z,103566.82
2019-02-26T10:33:48.923Z,103558.98
2019-02-26T10:34:53.837Z,103559.19
2019-02-26T10:37:01.841Z,103554.25
2019-02-26T10:40:17.127Z,103547.33
2019-02-26T10:41:22.033Z,103548.98
2019-02-26T10:42:26.441Z,103541.30
2019-02-26T10:46:42.748Z,103539.78
2019-02-26T10:47:48.907Z,103539.05
2019-02-26T10:48:54.631Z,103539.62
2019-02-26T10:49:59.157Z,103537.28
2019-02-26T10:51:06.016Z,103545.11
2019-02-26T10:52:10.927Z,103537.89
2019-02-26T10:54:20.217Z,103541.01
2019-02-26T10:55:31.414Z,103545.77
2019-02-26T10:56:38.505Z,103538.72
2019-02-26T10:57:38.695Z,103539.23
2019-02-26T11:02:58.731Z,103539.92
2019-02-26T11:07:15.993Z,103545.77
2019-02-26T11:09:28.681Z,103537.78
2019-02-26T11:10:30.504Z,103540.88
2019-02-26T11:12:38.506Z,103543.50
2019-02-26T11:13:45.683Z,103542.14
2019-02-26T11:18:00.147Z,103542.03
2019-02-26T11:22:20.459Z,103548.92
2019-02-26T11:23:30.925Z,103543.11
2019-02-26T11:25:34.392Z,103533.22
2019-02-26T11:26:40.728Z,103534.38
2019-02-26T11:28:49.260Z,103531.20
2019-02-26T11:33:05.860Z,103527.94
2019-02-26T11:34:13.266Z,103534.05
2019-02-26T11:38:28.735Z,103534.67
2019-02-26T11:40:36.779Z,103527.81
2019-02-26T11:41:41.259Z,103525.44
2019-02-26T11:43:49.367Z,103523.41
2019-02-26T11:45:59.170Z,103523.19
2019-02-26T11:48:08.799Z,103524.85
2019-02-26T11:49:16.933Z,103515.85
2019-02-26T11:51:25.590Z,103513.66
2019-02-26T11:52:29.973Z,103516.70
2019-02-26T11:53:34.463Z,103514.41
2019-02-26T11:54:40.237Z,103507.23
2019-02-26T11:56:49.819Z,103505.66
2019-02-26T11:58:58.868Z,103512.53
2019-02-26T12:01:26.988Z,103505.91
2019-02-26T12:03:37.058Z,103507.56
2019-02-26T12:06:49.225Z,103500.97
2019-02-26T12:07:54.303Z,103500.51
2019-02-26T12:10:09.645Z,103497.08
2019-02-26T12:17:35.627Z,103497.38
2019-02-26T12:18:41.645Z,103492.22
2019-02-26T12:20:50.012Z,103483.53
2019-02-26T12:21:55.167Z,103486.09
2019-02-26T12:27:20.910Z,103486.22
2019-02-26T12:28:25.406Z,103481.66
2019-02-26T12:29:31.264Z,103486.40
2019-02-26T12:30:37.456Z,103487.03
2019-02-26T12:31:42.105Z,103484.27
2019-02-26T12:35:59.553Z,103473.45
2019-02-26T12:37:06.698Z,103467.55
2019-02-26T12:38:18.336Z,103467.93
2019-02-26T12:39:18.576Z,103470.91
2019-02-26T12:41:26.609Z,103461.49
2019-02-26T12:42:31.087Z,103463.30
2019-02-26T12:43:36.720Z,103470.87
2019-02-26T12:45:45.559Z,103468.45
2019-02-26T12:46:51.123Z,103460.81
2019-02-26T12:47:56.345Z,103460.27
2019-02-26T12:49:02.983Z,103465.50
2019-02-26T12:53:23.603Z,103456.31
2019-02-26T12:55:35.873Z,103451.59
2019-02-26T12:58:53.948Z,103455.43
2019-02-26T13:00:59.753Z,103448.72
2019-02-26T13:06:22.829Z,103440.27
2019-02-26T13:09:32.488Z,103436.37
2019-02-26T13:10:38.562Z,103439.06
2019-02-26T13:12:00.579Z,103435.81
2019-02-26T13:18:11.414Z,103425.75
2019-02-26T13:23:36.122Z,103424.09
2019-02-26T13:26:51.093Z,103424.52
2019-02-26T13:31:08.646Z,103425.54
2019-02-26T13:34:21.233Z,103414.62
2019-02-26T13:35:25.803Z,103414.50
2019-02-26T13:36:35.115Z,103414.32
2019-02-26T13:37:41.933Z,103413.91
2019-02-26T13:38:48.289Z,103410.77
2019-02-26T13:39:50.644Z,103413.91
2019-02-26T13:47:28.014Z,103406.56
2019-02-26T13:48:33.617Z,103406.48
2019-02-26T13:51:45.352Z,103404.06
2019-02-26T13:59:11.499Z,103389.96
2019-02-26T14:01:20.324Z,103390.73
2019-02-26T14:03:28.360Z,103384.23
2019-02-26T14:05:38.372Z,103379.00
2019-02-26T14:06:43.003Z,103381.22
2019-02-26T14:08:51.030Z,103382.14
2019-02-26T14:09:56.741Z,103386.68
2019-02-26T14:12:04.833Z,103377.98
2019-02-26T14:13:09.262Z,103378.03
2019-02-26T14:14:14.090Z,103375.58
2019-02-26T14:15:25.136Z,103367.16
2019-02-26T14:17:33.571Z,103364.38
2019-02-26T14:18:38.254Z,103360.27
2019-02-26T14:20:46.570Z,103365.64
2019-02-26T14:21:50.927Z,103361.75
2019-02-26T14:22:55.377Z,103362.90
2019-02-26T14:24:00.010Z,103365.27
2019-02-26T14:25:05.714Z,103365.27
2019-02-26T14:26:10.073Z,103364.23
2019-02-26T14:32:34.319Z,103356.19
2019-02-26T14:35:46.817Z,103355.62
2019-02-26T14:37:54.873Z,103347.92
2019-02-26T14:39:00.173Z,103348.14
2019-02-26T14:41:13.304Z,103344.93
2019-02-26T14:43:21.843Z,103348.70
2019-02-26T14:45:30.101Z,103344.89
2019-02-26T14:50:49.185Z,103341.58
2019-02-26T14:51:53.934Z,103343.08
2019-02-26T14:52:58.311Z,103339.14
2019-02-26T14:55:08.435Z,103342.45
2019-02-26T14:57:16.481Z,103340.42
2019-02-26T15:00:29.512Z,103342.08
2019-02-26T15:01:33.925Z,103337.30
2019-02-26T15:02:38.317Z,103337.84
2019-02-26T15:03:42.714Z,103335.27
2019-02-26T15:09:01.981Z,103332.25
2019-02-26T15:11:13.816Z,103337.87
2019-02-26T15:13:22.050Z,103334.87
2019-02-26T15:15:30.338Z,103332.78
2019-02-26T15:16:35.066Z,103330.28
2019-02-26T15:19:51.217Z,103321.81
2019-02-26T15:25:12.563Z,103319.66
2019-02-26T15:26:17.284Z,103320.25
2019-02-26T15:28:25.588Z,103321.37
2019-02-26T15:30:34.027Z,103315.58
2019-02-26T15:31:39.639Z,103317.02
2019-02-26T15:35:55.233Z,103313.06
2019-02-26T15:36:59.641Z,103315.38
2019-02-26T15:38:04.051Z,103311.91
2019-02-26T15:40:15.017Z,103311.25
2019-02-26T15:42:23.153Z,103310.39
2019-02-26T15:43:27.527Z,103310.54
2019-02-26T15:44:32.144Z,103314.20
2019-02-26T15:46:40.158Z,103307.79
2019-02-26T15:48:48.415Z,103318.37
2019-02-26T15:49:53.041Z,103319.33
2019-02-26T15:50:57.858Z,103319.03
2019-02-26T15:55:16.465Z,103308.37
2019-02-26T15:56:21.087Z,103310.20
2019-02-26T15:58:29.155Z,103309.27
2019-02-26T15:59:35.506Z,103308.08
2019-02-26T16:01:43.755Z,103310.94
2019-02-26T16:04:56.943Z,103308.55
2019-02-26T16:07:05.251Z,103309.94
2019-02-26T16:08:09.673Z,103311.83
2019-02-26T16:09:14.831Z,103307.95
2019-02-26T16:12:27.608Z,103309.49
2019-02-26T16:13:32.018Z,103300.70
2019-02-26T16:16:44.126Z,103299.58
2019-02-26T16:20:59.417Z,103299.48
2019-02-26T16:22:03.928Z,103299.52
2019-02-26T16:23:08.416Z,103301.37
2019-02-26T16:25:16.383Z,103302.45
2019-02-26T16:29:32.880Z,103301.86
2019-02-26T16:30:37.230Z,103300.20
2019-02-26T16:31:41.671Z,103303.33
2019-02-26T16:38:05.486Z,103295.91
2019-02-26T16:41:19.599Z,103300.86
2019-02-26T16:42:23.935Z,103297.82
2019-02-26T16:43:28.340Z,103294.31
2019-02-26T16:45:36.623Z,103294.44
2019-02-26T16:46:42.657Z,103301.11
2019-02-26T16:49:55.491Z,103297.31
2019-02-26T16:53:07.195Z,103301.81
2019-02-26T16:57:23.173Z,103297.98
2019-02-26T16:58:27.900Z,103296.70
2019-02-26T17:00:37.037Z,103299.86
2019-02-26T17:01:42.156Z,103299.48
2019-02-26T17:11:22.137Z,103292.62
2019-02-26T17:13:30.512Z,103286.91
2019-02-26T17:14:34.914Z,103293.58
2019-02-26T17:15:39.375Z,103293.14
2019-02-26T17:16:44.267Z,103291.37
2019-02-26T17:18:52.679Z,103297.19
2019-02-26T17:21:00.722Z,103295.88
2019-02-26T17:23:08.767Z,103287.96
2019-02-26T17:24:13.223Z,103293.73
2019-02-26T17:29:32.293Z,103290.23
2019-02-26T17:30:37.600Z,103288.45
2019-02-26T17:32:45.931Z,103285.82
2019-02-26T17:33:50.353Z,103288.05
2019-02-26T17:34:55.756Z,103288.04
2019-02-26T17:38:08.229Z,103285.41
2019-02-26T17:42:25.937Z,103291.13
2019-02-26T17:46:42.440Z,103295.09
2019-02-26T17:47:46.853Z,103297.28
2019-02-26T17:48:51.243Z,103300.81
2019-02-26T17:49:55.777Z,103300.36
2019-02-26T17:52:03.871Z,103297.27
2019-02-26T17:55:15.753Z,103301.20
2019-02-26T17:56:20.597Z,103302.11
2019-02-26T17:58:29.312Z,103298.49
2019-02-26T18:01:40.971Z,103301.11
2019-02-26T18:03:49.193Z,103304.17
2019-02-26T18:04:53.625Z,103303.73
2019-02-26T18:07:01.727Z,103304.14
2019-02-26T18:08:06.135Z,103303.67
2019-02-26T18:12:24.313Z,103299.22
2019-02-26T18:13:29.175Z,103302.27
2019-02-26T18:15:37.154Z,103300.47
2019-02-26T18:16:41.708Z,103299.16
2019-02-26T18:17:46.424Z,103303.53
2019-02-26T18:18:50.815Z,103301.31
2019-02-26T18:19:55.250Z,103299.52
2019-02-26T18:20:59.662Z,103304.80
2019-02-26T18:22:04.060Z,103303.89
2019-02-26T18:23:08.519Z,103302.59
2019-02-26T18:24:12.990Z,103306.54
2019-02-26T18:25:19.251Z,103305.19
2019-02-26T18:26:23.701Z,103304.70
2019-02-26T18:29:35.375Z,103301.60
2019-02-26T18:32:50.157Z,103304.63
2019-02-26T18:33:54.105Z,103308.50
2019-02-26T18:36:02.209Z,103299.20
2019-02-26T18:37:06.733Z,103301.83
2019-02-26T18:39:14.919Z,103298.70
2019-02-26T18:41:23.085Z,103294.73
2019-02-26T18:44:34.740Z,103297.72
2019-02-26T18:45:39.144Z,103290.21
2019-02-26T18:47:47.730Z,103288.00
2019-02-26T18:51:02.198Z,103283.95
2019-02-26T18:52:08.472Z,103277.29
2019-02-26T18:54:19.941Z,103277.70
2019-02-26T18:55:22.944Z,103278.11
2019-02-26T18:56:27.632Z,103273.20
2019-02-26T19:06:01.092Z,103266.45
2019-02-26T19:10:20.661Z,103268.98
2019-02-26T19:13:33.270Z,103267.60
2019-02-26T19:15:41.467Z,103266.70
2019-02-26T19:18:54.944Z,103270.15
2019-02-26T19:22:06.705Z,103266.02
2019-02-26T19:23:11.107Z,103269.08
2019-02-26T19:24:15.606Z,103267.33
2019-02-26T19:25:20.041Z,103271.26
2019-02-26T19:26:24.400Z,103268.59
2019-02-26T19:27:29.162Z,103264.18
2019-02-26T19:34:55.569Z,103263.56
2019-02-26T19:35:59.977Z,103263.13
2019-02-26T19:37:04.552Z,103265.33
2019-02-26T19:38:09.062Z,103259.18
2019-02-26T19:42:27.817Z,103263.49
2019-02-26T19:44:36.451Z,103262.48
2019-02-26T19:45:43.843Z,103257.63
2019-02-26T19:47:55.785Z,103256.74
2019-02-26T19:48:58.060Z,103258.03
2019-02-26T19:50:04.423Z,103262.84
2019-02-26T19:52:12.762Z,103253.98
2019-02-26T19:53:17.234Z,103252.21
2019-02-26T19:54:21.617Z,103248.67
2019-02-26T19:59:46.893Z,103252.56
2019-02-26T20:00:53.010Z,103245.51
2019-02-26T20:04:04.911Z,103250.61
2019-02-26T20:05:12.230Z,103242.61
2019-02-26T20:06:18.789Z,103237.38
2019-02-26T20:08:27.155Z,103243.05
2019-02-26T20:10:35.163Z,103238.19
2019-02-26T20:12:43.269Z,103238.64
2019-02-26T20:13:47.637Z,103234.70
2019-02-26T20:19:06.500Z,103239.33
2019-02-26T20:20:14.053Z,103234.41
2019-02-26T20:21:19.649Z,103233.07
2019-02-26T20:24:31.591Z,103232.58
2019-02-26T20:26:39.654Z,103223.75
2019-02-26T20:27:44.380Z,103228.92
2019-02-26T20:28:48.777Z,103227.52
2019-02-26T20:29:54.213Z,103225.74
2019-02-26T20:30:58.571Z,103225.28
2019-02-26T20:36:19.691Z,103222.53
2019-02-26T20:38:32.093Z,103218.13
2019-02-26T20:39:35.291Z,103218.13
2019-02-26T20:41:43.343Z,103217.55
2019-02-26T20:43:52.371Z,103209.11
2019-02-26T20:44:59.088Z,103217.39
2019-02-26T20:46:03.140Z,103212.05
2019-02-26T20:47:07.549Z,103214.73
2019-02-26T20:48:11.953Z,103213.84
2019-02-26T20:50:21.290Z,103213.39
2019-02-26T20:52:32.659Z,103209.42
2019-02-26T20:54:40.057Z,103206.69
2019-02-26T20:56:48.057Z,103206.79
2019-02-26T20:59:59.692Z,103208.95
2019-02-26T21:01:04.187Z,103201.87
2019-02-26T21:04:15.840Z,103206.59
2019-02-26T21:09:34.815Z,103203.70
2019-02-26T21:11:42.919Z,103209.34
2019-02-26T21:12:47.434Z,103204.06
2019-02-26T21:13:51.852Z,103203.17
2019-02-26T21:15:59.930Z,103204.77
2019-02-26T21:18:08.030Z,103200.88
2019-02-26T21:19:12.372Z,103198.25
2019-02-26T21:21:20.542Z,103200.34
2019-02-26T21:23:28.645Z,103197.22
2019-02-26T21:24:34.649Z,103202.93
2019-02-26T21:27:46.696Z,103199.59
2019-02-26T21:30:58.616Z,103194.34
2019-02-26T21:32:03.011Z,103196.97
2019-02-26T21:33:07.445Z,103197.39
2019-02-26T21:34:11.947Z,103196.54
2019-02-26T21:36:19.944Z,103192.03
2019-02-26T21:37:24.347Z,103196.44
2019-02-26T21:39:32.453Z,103198.55
2019-02-26T21:40:37.397Z,103200.26
2019-02-26T21:41:41.990Z,103198.95
2019-02-26T21:42:46.401Z,103198.02
2019-02-26T21:43:50.791Z,103201.46
2019-02-26T21:44:55.205Z,103204.97
2019-02-26T21:49:11.534Z,103198.72
2019-02-26T21:50:16.432Z,103193.86
2019-02-26T21:52:24.444Z,103192.89
2019-02-26T21:53:28.862Z,103195.87
2019-02-26T21:54:33.248Z,103198.49
2019-02-26T21:58:48.666Z,103186.57
2019-02-26T22:00:56.751Z,103197.91
2019-02-26T22:02:01.170Z,103193.94
2019-02-26T22:03:05.677Z,103193.47
2019-02-26T22:05:13.776Z,103195.52
2019-02-26T22:06:18.206Z,103191.12
2019-02-26T22:07:22.582Z,103192.01
2019-02-26T22:08:26.992Z,103191.12
2019-02-26T22:09:31.417Z,103191.55
2019-02-26T22:10:36.475Z,103195.05
2019-02-26T22:11:41.158Z,103188.50
2019-02-26T22:12:45.564Z,103190.70
2019-02-26T22:13:50.277Z,103184.98
2019-02-26T22:15:58.383Z,103187.45
2019-02-26T22:19:10.159Z,103179.04
2019-02-26T22:20:22.054Z,103179.47
2019-02-26T22:22:26.808Z,103187.25
2019-02-26T22:24:35.033Z,103184.62
2019-02-26T22:25:39.426Z,103183.27
2019-02-26T22:27:47.503Z,103179.27
2019-02-26T22:28:53.063Z,103180.57
2019-02-26T22:34:13.339Z,103171.19
2019-02-26T22:36:21.459Z,103174.36
2019-02-26T22:38:29.770Z,103172.50
2019-02-26T22:40:38.080Z,103171.82
2019-02-26T22:41:42.591Z,103175.79
2019-02-26T22:43:50.844Z,103173.60
2019-02-26T22:49:10.556Z,103170.39
2019-02-26T22:54:30.847Z,103163.84
2019-02-26T22:55:35.282Z,103164.55
2019-02-26T23:05:15.765Z,103157.27
2019-02-26T23:08:28.659Z,103150.25
2019-02-26T23:09:33.232Z,103153.77
2019-02-26T23:10:38.475Z,103156.72
2019-02-26T23:11:42.963Z,103150.12
2019-02-26T23:12:47.896Z,103150.88
2019-02-26T23:16:00.897Z,103146.06
2019-02-26T23:17:05.935Z,103144.71
2019-02-26T23:18:10.450Z,103146.95
2019-02-26T23:19:14.854Z,103149.06
2019-02-26T23:20:19.680Z,103148.17
2019-02-26T23:22:28.391Z,103150.60
2019-02-26T23:23:33.109Z,103156.27
2019-02-26T23:24:37.519Z,103151.92
2019-02-26T23:25:42.344Z,103152.80
2019-02-26T23:28:55.517Z,103147.56
2019-02-26T23:36:25.724Z,103144.77
2019-02-26T23:37:34.175Z,103137.34
2019-02-26T23:39:41.302Z,103137.58
2019-02-26T23:40:45.812Z,103145.52
2019-02-26T23:41:50.823Z,103143.74
2019-02-26T23:42:55.206Z,103141.55
2019-02-26T23:43:59.659Z,103139.77
2019-02-26T23:46:09.806Z,103146.64
2019-02-26T23:47:14.212Z,103140.52
2019-02-26T23:48:18.723Z,103142.20
2019-02-26T23:52:35.004Z,103145.19
2019-02-26T23:54:43.966Z,103144.25
2019-02-26T23:56:52.605Z,103138.83
2019-02-26T23:59:03.833Z,103142.38
